Little Black, Wisconsin
Current Conditions -  °F | °C
As of 2:35 PM on Friday 21 Nov 2014 (Local Time) from KMDZ Reporting Station
Broken Clouds Broken Clouds  
Wind Chill: 11°   Ceiling: 12000
Heat Index: 21°   Visibility: 10mi
Dew Point:   Wind: 9mph
Humidity: 53%   Direction: 180°S
Pressure: 30.1"   Gusts: NA
Location:  45.2044°N, 90.4212°W
Report Text: KMDZ 212035Z AUTO 18008KT 10SM BKN120 M06/M14 A3010 RMK AO2 T10601141
Loading
Personal Weather Stations






























Interactive Weather Map New forecast layout! Learn more

10-Day Weather Forecast

Advertisements
Track Severe Weather on mobile